Time;durP1;ratioP1;P1;durP2;ratioP2;P2;SDS_P1;SDS_P2;PMS_P1;PMS_P2;Temp;Humidity;BMP_temperature;BMP_pressure;BME280_temperature;BME280_humidity;BME280_pressure;Samples;Min_cycle;Max_cycle;Signal;HPM_P1;HPM_P2
2022/11/27 00:00:04;;;;;;;12.17;3.40;;;6.40;99.90;;;;;;5077649;28;20475;-79
2022/11/27 00:02:31;;;;;;;7.23;3.20;;;6.30;99.90;;;;;;5077275;28;20792;-80
2022/11/27 00:04:58;;;;;;;11.43;3.03;;;6.30;99.90;;;;;;5077822;28;20447;-80
2022/11/27 00:07:25;;;;;;;10.50;3.63;;;6.30;99.90;;;;;;5078230;28;20458;-81
2022/11/27 00:09:51;;;;;;;9.90;3.17;;;6.30;99.90;;;;;;5076278;28;21031;-78
2022/11/27 00:12:18;;;;;;;7.27;3.10;;;6.30;99.90;;;;;;5076465;28;20538;-79
2022/11/27 00:14:45;;;;;;;5.00;2.53;;;6.30;99.90;;;;;;5076453;28;20999;-83
2022/11/27 00:17:13;;;;;;;8.20;3.00;;;6.30;99.90;;;;;;5081253;28;21161;-79
2022/11/27 00:19:43;;;;;;;6.23;2.63;;;6.20;99.90;;;;;;5077517;28;20469;-79
2022/11/27 00:22:10;;;;;;;7.70;2.80;;;6.20;99.90;;;;;;5078515;28;20483;-79
2022/11/27 00:24:36;;;;;;;13.33;2.60;;;6.20;99.90;;;;;;5077240;28;20485;-79
2022/11/27 00:27:03;;;;;;;8.60;5.13;;;6.30;99.90;;;;;;5078450;28;20457;-79
2022/11/27 00:29:30;;;;;;;10.63;3.07;;;6.20;99.90;;;;;;5076586;28;20474;-79
2022/11/27 00:31:57;;;;;;;4.90;2.40;;;6.10;99.90;;;;;;5077316;28;20532;-81
2022/11/27 00:34:25;;;;;;;10.80;3.00;;;6.10;99.90;;;;;;5076462;28;20448;-80
2022/11/27 00:36:52;;;;;;;8.70;3.23;;;6.20;99.90;;;;;;5077003;28;20601;-80
2022/11/27 00:39:20;;;;;;;6.83;2.50;;;6.10;99.90;;;;;;5076753;28;20516;-80
2022/11/27 00:41:50;;;;;;;7.57;3.37;;;6.10;99.90;;;;;;5076873;28;20464;-80
2022/11/27 00:44:17;;;;;;;13.80;3.60;;;6.10;99.90;;;;;;5071618;28;20486;-80
2022/11/27 00:46:44;;;;;;;6.43;3.27;;;6.10;99.90;;;;;;5076006;28;20895;-80
2022/11/27 00:49:13;;;;;;;6.03;2.73;;;6.10;99.90;;;;;;5077575;28;20458;-79
2022/11/27 00:51:42;;;;;;;6.10;2.40;;;6.10;99.90;;;;;;5077164;28;20962;-80
2022/11/27 00:54:09;;;;;;;6.90;3.03;;;6.10;99.90;;;;;;5077434;28;20513;-80
2022/11/27 00:56:37;;;;;;;8.37;3.57;;;6.10;99.90;;;;;;5077367;28;20464;-80
2022/11/27 00:59:05;;;;;;;8.07;3.00;;;6.20;99.90;;;;;;5077431;28;20507;-80
2022/11/27 01:01:35;;;;;;;5.80;2.70;;;6.10;99.90;;;;;;5077282;28;20475;-81
2022/11/27 01:04:04;;;;;;;5.83;2.60;;;6.10;99.90;;;;;;5076842;28;20866;-80
2022/11/27 01:06:31;;;;;;;6.00;2.47;;;6.00;99.90;;;;;;5077452;28;20452;-79
2022/11/27 01:08:59;;;;;;;7.33;2.90;;;6.00;99.90;;;;;;5077221;28;20454;-79
2022/11/27 01:11:29;;;;;;;7.37;2.63;;;5.90;99.90;;;;;;5076739;28;20478;-81
2022/11/27 01:13:57;;;;;;;7.47;2.87;;;5.80;99.90;;;;;;5077683;28;20456;-80
2022/11/27 01:16:26;;;;;;;6.80;3.00;;;5.80;99.90;;;;;;5060333;28;20447;-80
2022/11/27 01:18:56;;;;;;;10.20;3.23;;;5.70;99.90;;;;;;5070572;28;20450;-80
2022/11/27 01:21:23;;;;;;;5.73;2.80;;;5.70;99.90;;;;;;5075908;28;20485;-80
2022/11/27 01:23:50;;;;;;;5.50;2.20;;;5.70;99.90;;;;;;5076261;28;20867;-80
2022/11/27 01:26:19;;;;;;;8.67;2.50;;;5.70;99.90;;;;;;5075950;28;21026;-81
2022/11/27 01:28:47;;;;;;;4.97;2.53;;;5.70;99.90;;;;;;5076027;28;20988;-80
2022/11/27 01:31:16;;;;;;;4.77;1.80;;;5.70;99.90;;;;;;5077017;28;20532;-80
2022/11/27 01:33:43;;;;;;;4.97;2.23;;;5.70;99.90;;;;;;5076382;28;20839;-81
2022/11/27 01:36:12;;;;;;;10.13;2.83;;;5.70;99.90;;;;;;5075174;28;20868;-80
2022/11/27 01:38:39;;;;;;;6.63;3.10;;;5.60;99.90;;;;;;5075895;28;20454;-81
2022/11/27 01:41:08;;;;;;;5.00;2.63;;;5.70;99.90;;;;;;5076372;28;20477;-81
2022/11/27 01:43:39;;;;;;;8.03;3.03;;;5.70;99.90;;;;;;5075849;28;20569;-80
2022/11/27 01:46:11;;;;;;;6.80;2.73;;;5.70;99.90;;;;;;5077494;28;20458;-80
2022/11/27 01:48:38;;;;;;;4.17;2.70;;;5.70;99.90;;;;;;5076892;28;20486;-81
2022/11/27 01:51:05;;;;;;;4.00;2.63;;;5.70;99.90;;;;;;5077402;28;20488;-80
2022/11/27 01:53:33;;;;;;;10.17;2.87;;;5.70;99.90;;;;;;5077593;28;20440;-81
2022/11/27 01:56:01;;;;;;;5.93;2.77;;;5.70;99.90;;;;;;5084926;28;20520;-79
2022/11/27 01:58:30;;;;;;;9.23;3.30;;;5.60;99.90;;;;;;5093009;28;20456;-80
2022/11/27 02:00:58;;;;;;;10.17;2.83;;;5.60;99.90;;;;;;5074390;28;20477;-80
2022/11/27 02:03:26;;;;;;;10.40;3.87;;;5.60;99.90;;;;;;5075080;28;21017;-80
2022/11/27 02:05:53;;;;;;;6.53;2.90;;;5.60;99.90;;;;;;5075602;28;20812;-80
2022/11/27 02:08:20;;;;;;;4.03;2.30;;;5.60;99.90;;;;;;5075726;28;20454;-81
2022/11/27 02:10:50;;;;;;;5.90;2.70;;;5.60;99.90;;;;;;5072331;28;21027;-79
2022/11/27 02:13:25;;;;;;;4.20;2.40;;;5.60;99.90;;;;;;5075576;28;20461;-80
2022/11/27 02:16:03;;;;;;;5.83;2.80;;;5.70;99.90;;;;;;5075915;28;20459;-80
2022/11/27 02:18:37;;;;;;;5.43;2.50;;;5.70;99.90;;;;;;5075338;28;20462;-80
2022/11/27 02:21:09;;;;;;;4.67;2.47;;;5.70;99.90;;;;;;5075666;28;20478;-81
2022/11/27 02:23:59;;;;;;;4.47;2.37;;;5.60;99.90;;;;;;5075986;28;20548;-81
2022/11/27 02:26:48;;;;;;;7.07;2.63;;;5.60;99.90;;;;;;5075774;28;20481;-80
2022/11/27 02:29:19;;;;;;;8.80;3.53;;;5.60;99.90;;;;;;5073843;28;21079;-80
2022/11/27 02:31:51;;;;;;;8.80;2.80;;;5.60;99.90;;;;;;5075557;28;20447;-80
2022/11/27 02:34:25;;;;;;;4.77;2.63;;;5.60;99.90;;;;;;5078309;28;20451;-80
2022/11/27 02:37:00;;;;;;;4.47;2.50;;;5.60;99.90;;;;;;5078366;28;20454;-80
2022/11/27 02:39:33;;;;;;;6.73;2.60;;;5.60;99.90;;;;;;5079003;28;20455;-80
2022/11/27 02:42:06;;;;;;;6.83;2.90;;;5.60;99.90;;;;;;5079302;28;20495;-79
2022/11/27 02:44:40;;;;;;;7.47;2.80;;;5.60;99.90;;;;;;5078911;28;20504;-79
2022/11/27 02:47:08;;;;;;;3.23;2.47;;;5.60;99.90;;;;;;5078995;28;20454;-81
2022/11/27 02:49:37;;;;;;;5.77;2.50;;;5.60;99.90;;;;;;5078061;28;20512;-79
2022/11/27 02:52:06;;;;;;;6.90;3.03;;;5.50;99.90;;;;;;5079220;28;20458;-81
2022/11/27 02:54:34;;;;;;;5.87;2.70;;;5.60;99.90;;;;;;5078849;28;20437;-80
2022/11/27 02:57:04;;;;;;;6.93;3.83;;;5.60;99.90;;;;;;5077974;28;20463;-80
2022/11/27 02:59:33;;;;;;;7.90;2.87;;;5.50;99.90;;;;;;5077464;28;20477;-80
2022/11/27 03:02:06;;;;;;;5.23;2.40;;;5.60;99.90;;;;;;5077680;28;20446;-80
2022/11/27 03:04:37;;;;;;;5.17;2.00;;;5.50;99.90;;;;;;5077524;28;20477;-80
2022/11/27 03:07:12;;;;;;;6.60;3.40;;;5.50;99.90;;;;;;5077807;28;20534;-80
2022/11/27 03:09:42;;;;;;;6.63;2.70;;;5.40;99.90;;;;;;5061365;28;20476;-79
2022/11/27 03:12:10;;;;;;;6.27;2.50;;;5.40;99.90;;;;;;5077322;28;20461;-80
2022/11/27 03:14:40;;;;;;;4.60;2.30;;;5.40;99.90;;;;;;5077511;28;20457;-80
2022/11/27 03:17:18;;;;;;;3.80;2.53;;;5.40;99.90;;;;;;5077322;28;20540;-80
2022/11/27 03:19:52;;;;;;;6.40;3.00;;;5.40;99.90;;;;;;5077343;28;20948;-79
2022/11/27 03:22:19;;;;;;;5.67;2.97;;;5.30;99.90;;;;;;5077486;28;20447;-79
2022/11/27 03:24:48;;;;;;;5.13;2.00;;;5.30;99.90;;;;;;5077815;28;20451;-79
2022/11/27 03:27:19;;;;;;;8.07;2.73;;;5.30;99.90;;;;;;5078025;28;20509;-79
2022/11/27 03:29:50;;;;;;;4.67;2.60;;;5.30;99.90;;;;;;5077608;28;20487;-79
2022/11/27 03:32:18;;;;;;;5.80;2.60;;;5.30;99.90;;;;;;5077052;28;20965;-79
2022/11/27 03:34:46;;;;;;;8.93;3.57;;;5.30;99.90;;;;;;5077768;28;20444;-79
2022/11/27 03:37:13;;;;;;;6.03;3.23;;;5.40;99.90;;;;;;5076973;28;20456;-80
2022/11/27 03:39:40;;;;;;;6.97;3.80;;;5.40;99.90;;;;;;5076486;28;20861;-79
2022/11/27 03:42:17;;;;;;;5.50;3.30;;;5.40;99.90;;;;;;5077190;28;20461;-81
2022/11/27 03:44:49;;;;;;;7.47;3.90;;;5.40;99.90;;;;;;5077437;28;20483;-80
2022/11/27 03:47:28;;;;;;;10.40;3.70;;;5.50;99.90;;;;;;5076992;28;20530;-80
2022/11/27 03:50:09;;;;;;;6.83;3.60;;;5.50;99.90;;;;;;5077556;28;20513;-81
2022/11/27 03:52:43;;;;;;;9.33;3.80;;;5.60;99.90;;;;;;5079490;28;20454;-81
2022/11/27 03:55:15;;;;;;;10.33;4.10;;;5.60;99.90;;;;;;5077766;28;20456;-81
2022/11/27 03:57:50;;;;;;;9.93;4.00;;;5.70;99.90;;;;;;5079183;28;20887;-81
2022/11/27 04:00:17;;;;;;;6.40;3.80;;;5.70;99.90;;;;;;5079076;28;20905;-81
2022/11/27 04:02:49;;;;;;;7.73;3.77;;;5.80;99.90;;;;;;5078612;28;20472;-81
2022/11/27 04:05:16;;;;;;;7.53;3.30;;;5.80;99.90;;;;;;5083373;28;20481;-81
2022/11/27 04:07:43;;;;;;;6.50;3.10;;;5.90;99.90;;;;;;5091966;28;20497;-79
2022/11/27 04:10:11;;;;;;;13.07;3.53;;;6.00;99.90;;;;;;5089170;28;20557;-80
2022/11/27 04:12:38;;;;;;;7.83;3.63;;;6.10;99.90;;;;;;5077092;28;20950;-79
2022/11/27 04:15:07;;;;;;;10.43;3.33;;;6.10;99.90;;;;;;5077302;28;20456;-80
2022/11/27 04:17:34;;;;;;;9.83;3.70;;;6.10;99.90;;;;;;5077230;28;20460;-80
2022/11/27 04:20:02;;;;;;;8.27;3.87;;;6.10;99.90;;;;;;5077804;28;20863;-79
2022/11/27 04:22:29;;;;;;;6.47;3.30;;;6.10;99.90;;;;;;5076142;28;20456;-79
2022/11/27 04:24:55;;;;;;;11.00;4.73;;;6.10;99.90;;;;;;5076958;28;20576;-80
2022/11/27 04:27:22;;;;;;;5.87;3.63;;;6.00;99.90;;;;;;5077454;28;20447;-80
2022/11/27 04:29:49;;;;;;;5.80;3.80;;;6.10;99.90;;;;;;5077111;28;20960;-80
2022/11/27 04:32:16;;;;;;;6.80;3.00;;;6.20;99.90;;;;;;5077787;28;20453;-79
2022/11/27 04:34:43;;;;;;;7.30;3.83;;;6.10;99.90;;;;;;5076854;28;20454;-79
2022/11/27 04:37:11;;;;;;;7.60;3.77;;;6.10;99.90;;;;;;5077325;28;20903;-79
2022/11/27 04:39:38;;;;;;;5.70;3.10;;;6.20;99.90;;;;;;5076353;28;20488;-80
2022/11/27 04:42:05;;;;;;;9.47;5.00;;;6.30;99.90;;;;;;5078220;28;20513;-80
2022/11/27 04:44:31;;;;;;;6.20;3.10;;;6.30;99.90;;;;;;5076808;28;20562;-80
2022/11/27 04:46:58;;;;;;;7.93;3.63;;;6.40;99.90;;;;;;5076980;28;20899;-80
2022/11/27 04:49:25;;;;;;;7.70;3.90;;;6.40;99.90;;;;;;5076066;28;20476;-80
2022/11/27 04:51:52;;;;;;;8.60;3.83;;;6.40;99.90;;;;;;5076441;28;20824;-79
2022/11/27 04:54:20;;;;;;;8.30;3.80;;;6.50;99.90;;;;;;5076851;28;20450;-79
2022/11/27 04:56:47;;;;;;;12.17;4.37;;;6.50;99.90;;;;;;5075096;28;20448;-80
2022/11/27 04:59:14;;;;;;;5.33;3.10;;;6.50;99.90;;;;;;5076309;28;20450;-80
2022/11/27 05:01:41;;;;;;;6.43;3.70;;;6.60;99.90;;;;;;5076212;28;21007;-80
2022/11/27 05:04:08;;;;;;;5.60;3.97;;;6.50;99.90;;;;;;5076031;28;20466;-79
2022/11/27 05:06:34;;;;;;;6.90;3.73;;;6.60;99.90;;;;;;5075362;28;20451;-80
2022/11/27 05:09:01;;;;;;;5.43;3.67;;;6.60;99.90;;;;;;5075339;28;20445;-80
2022/11/27 05:11:31;;;;;;;9.30;4.23;;;6.60;99.90;;;;;;5075745;28;20869;-80
2022/11/27 05:14:16;;;;;;;7.17;3.90;;;6.60;99.90;;;;;;5077110;28;20961;-80
2022/11/27 05:16:46;;;;;;;10.87;3.60;;;6.60;99.90;;;;;;5076732;28;20448;-80
2022/11/27 05:19:14;;;;;;;6.27;3.80;;;6.70;99.90;;;;;;5075913;28;20460;-80
2022/11/27 05:21:41;;;;;;;7.07;3.57;;;6.70;99.90;;;;;;5076347;28;20530;-78
2022/11/27 05:24:08;;;;;;;8.80;4.87;;;6.70;99.90;;;;;;5075042;28;20458;-79
2022/11/27 05:26:37;;;;;;;5.60;3.10;;;6.70;99.90;;;;;;5075326;28;20453;-80
2022/11/27 05:29:04;;;;;;;8.03;3.33;;;6.70;99.90;;;;;;5073809;28;21224;-80
2022/11/27 05:31:31;;;;;;;9.00;4.20;;;6.70;99.90;;;;;;5075326;28;20481;-80
2022/11/27 05:33:58;;;;;;;6.70;3.77;;;6.70;99.90;;;;;;5075400;28;20449;-80
2022/11/27 05:36:25;;;;;;;9.80;4.00;;;6.70;99.90;;;;;;5075472;28;20450;-79
2022/11/27 05:38:52;;;;;;;9.37;5.30;;;6.80;99.90;;;;;;5075134;28;20450;-80
2022/11/27 05:41:19;;;;;;;8.60;3.70;;;6.80;99.90;;;;;;5106390;22;20513;-80
2022/11/27 05:43:48;;;;;;;7.70;4.67;;;6.80;99.90;;;;;;5033311;28;20553;-78
2022/11/27 05:46:17;;;;;;;8.70;4.70;;;6.80;99.90;;;;;;5051002;28;20569;-77
2022/11/27 05:48:43;;;;;;;10.07;3.77;;;6.90;99.90;;;;;;5052819;28;20451;-79
2022/11/27 05:51:11;;;;;;;6.33;3.13;;;6.90;99.90;;;;;;5048410;28;21005;-78
2022/11/27 05:53:37;;;;;;;6.23;3.17;;;7.00;99.90;;;;;;5052900;28;20499;-79
2022/11/27 05:56:10;;;;;;;6.90;3.57;;;7.00;99.90;;;;;;5039244;28;20449;-77
2022/11/27 05:58:37;;;;;;;6.70;3.67;;;7.00;99.90;;;;;;5033589;28;20808;-78
2022/11/27 06:01:06;;;;;;;8.43;3.60;;;7.00;99.90;;;;;;5037931;28;20478;-78
2022/11/27 06:03:33;;;;;;;6.70;3.57;;;7.00;99.90;;;;;;5039347;28;20455;-77
2022/11/27 06:06:06;;;;;;;7.43;4.20;;;7.00;99.90;;;;;;5033675;28;20485;-79
2022/11/27 06:08:33;;;;;;;6.63;3.47;;;7.10;99.90;;;;;;5036629;28;20830;-78
2022/11/27 06:10:59;;;;;;;10.40;4.60;;;7.10;99.90;;;;;;5044833;28;20478;-78
2022/11/27 06:13:26;;;;;;;9.77;3.87;;;7.10;99.90;;;;;;5046080;28;20449;-79
2022/11/27 06:15:53;;;;;;;7.20;4.20;;;7.10;99.90;;;;;;5047979;28;20457;-79
2022/11/27 06:18:21;;;;;;;12.23;4.60;;;7.10;99.90;;;;;;5053317;28;20459;-78
2022/11/27 06:20:48;;;;;;;9.00;4.33;;;7.10;99.90;;;;;;5049489;28;20476;-78
2022/11/27 06:23:15;;;;;;;6.53;4.10;;;7.10;99.90;;;;;;5038673;28;20470;-80
2022/11/27 06:25:41;;;;;;;9.00;4.17;;;7.10;99.90;;;;;;5037939;28;20570;-77
2022/11/27 06:28:08;;;;;;;7.77;5.07;;;7.00;99.90;;;;;;5046057;28;20449;-79
2022/11/27 06:30:37;;;;;;;13.60;4.47;;;7.00;99.90;;;;;;5040813;28;20484;-78
2022/11/27 06:33:04;;;;;;;9.70;4.40;;;7.00;99.90;;;;;;5038103;28;20982;-78
2022/11/27 06:35:32;;;;;;;6.90;3.80;;;7.00;99.90;;;;;;5046714;28;20450;-77
2022/11/27 06:37:59;;;;;;;9.80;4.63;;;7.00;99.90;;;;;;5048601;28;20654;-77
2022/11/27 06:40:26;;;;;;;8.10;4.27;;;7.00;99.90;;;;;;5053778;28;20485;-78
2022/11/27 06:42:53;;;;;;;8.03;3.90;;;7.10;99.90;;;;;;5050046;28;20551;-78
2022/11/27 06:45:20;;;;;;;7.90;4.03;;;7.10;99.90;;;;;;5035209;28;20480;-78
2022/11/27 06:47:46;;;;;;;7.57;4.10;;;7.20;99.90;;;;;;5039607;28;20457;-77
2022/11/27 06:50:13;;;;;;;6.47;4.30;;;7.20;99.90;;;;;;5043709;28;21240;-79
2022/11/27 06:52:41;;;;;;;12.00;4.37;;;7.20;99.90;;;;;;5041438;28;20448;-79
2022/11/27 06:55:09;;;;;;;6.63;3.40;;;7.30;99.90;;;;;;5039007;28;20460;-79
2022/11/27 06:57:35;;;;;;;9.10;4.53;;;7.40;99.90;;;;;;5037162;28;20455;-77
2022/11/27 07:00:02;;;;;;;7.23;4.33;;;7.40;99.90;;;;;;5045753;28;20452;-79
2022/11/27 07:02:29;;;;;;;10.13;4.50;;;7.40;99.90;;;;;;5039463;28;20448;-79
2022/11/27 07:04:56;;;;;;;6.03;4.40;;;7.30;99.90;;;;;;5038253;28;20480;-78
2022/11/27 07:07:23;;;;;;;9.70;5.23;;;7.30;99.90;;;;;;5037745;28;20543;-78
2022/11/27 07:09:51;;;;;;;8.10;4.13;;;7.30;99.90;;;;;;5035750;28;20463;-77
2022/11/27 07:12:18;;;;;;;8.27;4.87;;;7.30;99.90;;;;;;5052902;28;20454;-78
2022/11/27 07:14:44;;;;;;;8.50;4.67;;;7.30;99.90;;;;;;5039859;28;20524;-80
2022/11/27 07:17:11;;;;;;;10.67;4.40;;;7.30;99.90;;;;;;5039602;28;20456;-80
2022/11/27 07:19:38;;;;;;;7.57;4.20;;;7.30;99.90;;;;;;5037324;28;20479;-77
2022/11/27 07:22:05;;;;;;;8.63;4.20;;;7.30;99.90;;;;;;5038689;28;20860;-81
2022/11/27 07:24:32;;;;;;;7.67;4.30;;;7.30;99.90;;;;;;5052092;28;20527;-80
2022/11/27 07:27:00;;;;;;;6.53;3.90;;;7.30;99.90;;;;;;5058287;28;20594;-78
2022/11/27 07:29:27;;;;;;;5.30;3.17;;;7.30;99.90;;;;;;5057286;28;20542;-78
2022/11/27 07:31:53;;;;;;;6.80;4.07;;;7.30;99.90;;;;;;5058626;28;20474;-78
2022/11/27 07:34:20;;;;;;;6.97;3.90;;;7.50;99.90;;;;;;5042160;28;20921;-77
2022/11/27 07:36:47;;;;;;;4.90;3.83;;;7.50;99.90;;;;;;5038999;28;20528;-78
2022/11/27 07:39:14;;;;;;;7.67;4.00;;;7.60;99.90;;;;;;5042220;28;20459;-78
2022/11/27 07:41:40;;;;;;;5.53;4.10;;;7.70;99.90;;;;;;5039253;28;20479;-79
2022/11/27 07:44:09;;;;;;;7.43;4.20;;;7.80;99.90;;;;;;5044291;28;20459;-78
2022/11/27 07:46:36;;;;;;;7.97;4.67;;;7.80;99.90;;;;;;5040147;28;20577;-77
2022/11/27 07:49:03;;;;;;;9.37;4.77;;;7.80;99.90;;;;;;5042900;28;20536;-77
2022/11/27 07:51:30;;;;;;;7.47;4.40;;;7.80;99.90;;;;;;5040567;28;20564;-78
2022/11/27 07:53:57;;;;;;;4.67;3.60;;;7.80;99.90;;;;;;5046465;28;20460;-77
2022/11/27 07:56:24;;;;;;;9.80;5.33;;;7.90;99.90;;;;;;5060246;28;20483;-78
2022/11/27 07:58:51;;;;;;;8.53;4.10;;;7.90;99.90;;;;;;5059447;28;20456;-79
2022/11/27 08:01:20;;;;;;;5.30;3.70;;;7.90;99.90;;;;;;5053330;28;20475;-78
2022/11/27 08:03:47;;;;;;;7.07;3.97;;;7.90;99.90;;;;;;5052795;28;20479;-80
2022/11/27 08:06:16;;;;;;;6.10;3.60;;;7.90;99.90;;;;;;5048447;28;20592;-78
2022/11/27 08:08:43;;;;;;;7.13;3.00;;;7.90;99.90;;;;;;5057622;28;20536;-78
2022/11/27 08:11:21;;;;;;;6.20;4.90;;;7.90;99.90;;;;;;5045842;28;20514;-79
2022/11/27 08:13:49;;;;;;;8.73;4.00;;;8.00;99.90;;;;;;5047478;28;20445;-78
2022/11/27 08:16:16;;;;;;;5.80;3.70;;;8.00;99.90;;;;;;5041618;28;20449;-76
2022/11/27 08:18:44;;;;;;;8.23;4.20;;;8.10;99.90;;;;;;5038198;28;20490;-78
2022/11/27 08:21:11;;;;;;;9.93;4.63;;;8.10;99.90;;;;;;5050361;28;20471;-78
2022/11/27 08:23:38;;;;;;;6.67;3.00;;;8.20;99.90;;;;;;5055067;28;20458;-78
2022/11/27 08:26:06;;;;;;;7.83;3.50;;;8.20;99.90;;;;;;5040445;28;20477;-79
2022/11/27 08:28:33;;;;;;;5.63;3.20;;;8.30;99.90;;;;;;5055653;28;20455;-78
2022/11/27 08:31:01;;;;;;;4.30;3.03;;;8.50;99.90;;;;;;5055965;28;20471;-78
2022/11/27 08:33:28;;;;;;;7.03;3.67;;;8.60;99.90;;;;;;5049077;28;20484;-79
2022/11/27 08:35:56;;;;;;;8.67;3.83;;;8.60;99.90;;;;;;5043320;28;20473;-80
2022/11/27 08:38:23;;;;;;;5.03;2.83;;;8.70;99.90;;;;;;5056431;28;20531;-79
2022/11/27 08:41:01;;;;;;;7.93;3.53;;;8.80;99.90;;;;;;5043024;28;20484;-79
2022/11/27 08:43:29;;;;;;;4.37;2.83;;;9.00;99.90;;;;;;5052488;28;20484;-81
2022/11/27 08:45:56;;;;;;;4.50;3.17;;;9.00;99.90;;;;;;5038508;28;20489;-79
2022/11/27 08:48:23;;;;;;;6.80;3.10;;;9.10;99.90;;;;;;5036497;28;20853;-80
2022/11/27 08:50:51;;;;;;;6.77;3.53;;;9.30;99.90;;;;;;5040943;28;20537;-79
2022/11/27 08:53:20;;;;;;;5.27;3.23;;;9.50;99.90;;;;;;5057065;28;20456;-79
2022/11/27 08:55:47;;;;;;;4.33;2.70;;;9.60;99.90;;;;;;5036579;28;20503;-80
2022/11/27 08:58:14;;;;;;;5.30;3.13;;;9.70;99.90;;;;;;5043071;28;20462;-79
2022/11/27 09:00:41;;;;;;;7.17;2.97;;;9.90;99.90;;;;;;5044773;28;20463;-79
2022/11/27 09:03:07;;;;;;;7.33;3.57;;;10.00;99.90;;;;;;5046951;28;20460;-79
2022/11/27 09:05:34;;;;;;;6.10;4.10;;;10.00;99.90;;;;;;5043904;28;20482;-78
2022/11/27 09:08:04;;;;;;;6.23;3.10;;;10.20;99.90;;;;;;5048507;28;20453;-78
2022/11/27 09:10:32;;;;;;;4.63;2.70;;;10.20;99.90;;;;;;5042729;28;20479;-78
2022/11/27 09:12:59;;;;;;;8.60;2.80;;;10.20;99.90;;;;;;5046367;28;20474;-79
2022/11/27 09:15:26;;;;;;;5.20;2.67;;;10.00;99.90;;;;;;5052117;28;20533;-79
2022/11/27 09:17:53;;;;;;;4.83;2.97;;;10.00;99.90;;;;;;5040840;28;20929;-79
2022/11/27 09:20:20;;;;;;;4.57;2.43;;;10.00;99.90;;;;;;5038966;28;21034;-82
2022/11/27 09:22:47;;;;;;;5.43;2.80;;;10.10;99.90;;;;;;5035378;28;20906;-79
2022/11/27 09:25:13;;;;;;;9.07;2.93;;;10.20;99.90;;;;;;5043405;28;20481;-79
2022/11/27 09:27:42;;;;;;;5.57;3.00;;;10.30;99.90;;;;;;5042129;28;20455;-82
2022/11/27 09:30:11;;;;;;;3.67;2.17;;;10.30;99.90;;;;;;5044269;28;20517;-80
2022/11/27 09:32:43;;;;;;;7.10;3.57;;;10.40;99.90;;;;;;5042158;28;20452;-80
2022/11/27 09:35:09;;;;;;;4.93;2.70;;;10.30;99.90;;;;;;5041977;28;20451;-79
2022/11/27 09:37:40;;;;;;;8.93;3.20;;;10.30;99.90;;;;;;5045769;28;20439;-81
2022/11/27 09:40:09;;;;;;;10.53;2.80;;;10.30;99.90;;;;;;5046413;28;20494;-79
2022/11/27 09:42:40;;;;;;;4.70;2.90;;;10.10;99.90;;;;;;5039851;28;20482;-81
2022/11/27 09:45:15;;;;;;;4.63;2.60;;;10.10;99.90;;;;;;5045128;28;20980;-79
2022/11/27 09:47:46;;;;;;;7.97;3.20;;;10.00;99.90;;;;;;5042204;28;20445;-78
2022/11/27 09:50:16;;;;;;;4.83;2.80;;;10.10;99.90;;;;;;5044233;28;20894;-79
2022/11/27 09:52:48;;;;;;;6.60;3.30;;;10.10;99.90;;;;;;5047285;28;20513;-80
2022/11/27 09:55:20;;;;;;;6.73;3.10;;;10.20;99.90;;;;;;5044321;28;20474;-78
2022/11/27 09:57:59;;;;;;;5.37;3.10;;;10.30;99.90;;;;;;5045459;28;20530;-82
2022/11/27 10:00:28;;;;;;;4.60;2.80;;;10.40;99.90;;;;;;5046493;28;20459;-78
2022/11/27 10:02:55;;;;;;;5.33;3.10;;;10.50;99.90;;;;;;5044683;28;20530;-81
2022/11/27 10:05:24;;;;;;;4.90;3.50;;;10.60;99.90;;;;;;5051893;28;20438;-79
2022/11/27 10:08:04;;;;;;;4.13;2.70;;;10.70;99.90;;;;;;5038948;28;20977;-79
2022/11/27 10:10:39;;;;;;;7.10;3.00;;;10.80;99.90;;;;;;5058139;28;20561;-80
2022/11/27 10:13:16;;;;;;;4.97;3.50;;;10.90;99.90;;;;;;5040134;28;20451;-81
2022/11/27 10:15:51;;;;;;;5.47;2.70;;;11.00;99.90;;;;;;5039024;28;20465;-80
2022/11/27 10:18:29;;;;;;;6.10;3.87;;;11.00;99.90;;;;;;5040721;28;20491;-80
2022/11/27 10:21:00;;;;;;;5.77;3.40;;;11.00;99.90;;;;;;5048987;28;20499;-81
2022/11/27 10:23:40;;;;;;;4.80;2.87;;;11.10;99.90;;;;;;5045340;28;20534;-80
2022/11/27 10:26:14;;;;;;;5.33;3.23;;;11.30;99.90;;;;;;5044704;28;20476;-80
2022/11/27 10:28:46;;;;;;;4.83;3.00;;;11.40;99.90;;;;;;5045588;28;20443;-79
2022/11/27 10:31:19;;;;;;;6.97;3.53;;;11.50;99.90;;;;;;5044093;28;20496;-80
2022/11/27 10:33:50;;;;;;;5.97;3.10;;;11.70;99.90;;;;;;5039901;28;20968;-79
2022/11/27 10:36:21;;;;;;;3.70;2.40;;;11.80;99.90;;;;;;5045451;28;20877;-80
2022/11/27 10:38:48;;;;;;;5.83;2.70;;;11.70;99.90;;;;;;5046786;28;20451;-80
2022/11/27 10:41:23;;;;;;;3.80;2.50;;;11.80;99.90;;;;;;5042995;28;20476;-80
2022/11/27 10:43:56;;;;;;;7.37;3.17;;;11.80;99.90;;;;;;5036334;28;20932;-78
2022/11/27 10:46:28;;;;;;;8.53;4.60;;;11.70;99.90;;;;;;5043461;28;20513;-78
2022/11/27 10:48:55;;;;;;;4.50;3.50;;;12.00;99.90;;;;;;5038527;28;20443;-79
2022/11/27 10:51:28;;;;;;;5.10;3.00;;;12.20;99.90;;;;;;5041319;28;20466;-79
2022/11/27 10:53:55;;;;;;;5.37;2.60;;;12.10;99.90;;;;;;5044218;28;20986;-79
2022/11/27 10:56:50;;;;;;;4.47;2.20;;;12.10;99.90;;;;;;5041372;28;20472;-78
2022/11/27 10:59:21;;;;;;;5.33;3.20;;;11.90;99.90;;;;;;5041157;28;20465;-79
2022/11/27 11:01:52;;;;;;;5.43;2.63;;;12.00;99.90;;;;;;5047424;28;20594;-79
2022/11/27 11:04:22;;;;;;;4.50;2.73;;;11.90;99.90;;;;;;5046241;28;20900;-80
2022/11/27 11:06:50;;;;;;;7.57;3.43;;;11.90;99.90;;;;;;5046742;28;20482;-79
2022/11/27 11:09:23;;;;;;;6.13;2.73;;;11.90;99.90;;;;;;5045023;28;20484;-79
2022/11/27 11:11:50;;;;;;;6.40;2.20;;;11.90;99.90;;;;;;5048581;28;20861;-79
2022/11/27 11:14:20;;;;;;;6.20;3.20;;;11.80;99.90;;;;;;5054335;28;20536;-78
2022/11/27 11:16:49;;;;;;;3.63;2.70;;;11.70;99.90;;;;;;5048396;28;20452;-80
2022/11/27 11:19:24;;;;;;;7.40;2.50;;;11.60;99.90;;;;;;5046548;28;20538;-79
2022/11/27 11:21:51;;;;;;;3.50;2.23;;;11.30;99.90;;;;;;5051379;28;20480;-79
2022/11/27 11:24:25;;;;;;;6.80;2.67;;;11.30;99.90;;;;;;5048685;28;20983;-79
2022/11/27 11:26:55;;;;;;;4.50;2.93;;;11.20;99.90;;;;;;5045902;28;20484;-79
2022/11/27 11:29:34;;;;;;;6.53;2.83;;;11.20;99.90;;;;;;5048794;28;20459;-78
2022/11/27 11:32:14;;;;;;;4.47;2.70;;;11.10;99.90;;;;;;5045972;28;20475;-80
2022/11/27 11:34:43;;;;;;;7.83;2.90;;;11.10;99.90;;;;;;5047106;28;20462;-79
2022/11/27 11:37:21;;;;;;;5.33;2.67;;;11.10;99.90;;;;;;5046016;28;20991;-77
2022/11/27 11:39:55;;;;;;;5.90;2.53;;;11.20;99.90;;;;;;5042439;28;20542;-80
2022/11/27 11:42:24;;;;;;;3.90;2.43;;;11.20;99.90;;;;;;5049153;28;20553;-79
2022/11/27 11:44:52;;;;;;;6.20;2.40;;;11.30;99.90;;;;;;5045425;28;20507;-79
2022/11/27 11:47:23;;;;;;;4.23;2.20;;;11.40;99.90;;;;;;5067788;22;20493;-77
2022/11/27 11:49:51;;;;;;;5.10;2.23;;;11.40;99.90;;;;;;5032399;28;20463;-78
2022/11/27 11:52:35;;;;;;;6.23;2.60;;;11.50;99.90;;;;;;5036932;28;20445;-78
2022/11/27 11:55:13;;;;;;;4.60;2.20;;;11.40;99.90;;;;;;5035323;28;20528;-78
2022/11/27 11:57:54;;;;;;;3.53;2.00;;;11.50;99.90;;;;;;5029001;28;20491;-78
2022/11/27 12:00:22;;;;;;;3.80;2.40;;;11.40;99.90;;;;;;5027665;28;20472;-79
2022/11/27 12:03:23;;;;;;;4.60;2.20;;;11.30;99.90;;;;;;5020188;28;20514;-79
2022/11/27 12:06:15;;;;;;;3.93;1.90;;;11.30;99.90;;;;;;4999089;28;20545;-79
2022/11/27 12:08:54;;;;;;;6.10;3.37;;;11.30;99.90;;;;;;5010148;28;20495;-79
2022/11/27 12:11:26;;;;;;;5.57;1.90;;;11.30;99.90;;;;;;4996202;28;20450;-79
2022/11/27 12:14:10;;;;;;;3.87;2.63;;;11.20;99.90;;;;;;5013324;28;20895;-79
2022/11/27 12:16:47;;;;;;;5.70;2.40;;;11.30;99.90;;;;;;5002226;28;20974;-79
2022/11/27 12:19:35;;;;;;;5.77;2.73;;;11.20;99.90;;;;;;4990973;28;21016;-79
2022/11/27 12:22:12;;;;;;;5.17;2.43;;;11.10;99.90;;;;;;5000743;28;20461;-79
2022/11/27 12:25:02;;;;;;;4.60;2.13;;;10.90;99.90;;;;;;4998744;28;20520;-79
2022/11/27 12:27:39;;;;;;;4.27;2.00;;;10.70;99.90;;;;;;5008429;28;20495;-80
2022/11/27 12:30:12;;;;;;;6.13;2.50;;;10.60;99.90;;;;;;5006468;28;20481;-79
2022/11/27 12:33:09;;;;;;;8.23;3.63;;;10.50;99.90;;;;;;5012531;28;20535;-79
2022/11/27 12:35:44;;;;;;;5.37;1.90;;;10.50;99.90;;;;;;5014168;28;20457;-80
2022/11/27 12:38:31;;;;;;;4.57;2.53;;;10.40;99.90;;;;;;4995652;28;20480;-79
2022/11/27 12:41:23;;;;;;;6.13;2.33;;;10.40;99.90;;;;;;5014475;28;20451;-79
2022/11/27 12:43:54;;;;;;;2.93;1.80;;;10.30;99.90;;;;;;5009806;28;20458;-79
2022/11/27 12:46:28;;;;;;;4.60;1.73;;;10.20;99.90;;;;;;5016444;28;20448;-79
2022/11/27 12:48:58;;;;;;;2.20;1.40;;;10.20;99.90;;;;;;5021972;28;20513;-78
2022/11/27 12:51:30;;;;;;;3.33;1.90;;;10.20;99.90;;;;;;5016124;28;20512;-79
2022/11/27 12:54:01;;;;;;;5.17;2.20;;;10.20;99.90;;;;;;5011302;28;20459;-79
2022/11/27 12:56:32;;;;;;;6.23;2.37;;;10.20;99.90;;;;;;5010484;28;20523;-79
2022/11/27 12:59:07;;;;;;;3.23;2.10;;;10.30;99.90;;;;;;5007667;28;20479;-78
2022/11/27 13:01:39;;;;;;;3.83;2.27;;;10.30;99.90;;;;;;5011090;28;20460;-77
2022/11/27 13:04:18;;;;;;;2.60;1.43;;;10.40;99.90;;;;;;5012609;28;20523;-78
2022/11/27 13:06:54;;;;;;;5.63;2.17;;;10.50;99.90;;;;;;5013837;28;20562;-78